sensor_id;sensor_type;location;lat;lon;timestamp;temperature;humidity
13652;DHT22;6899;51.546;6.912;2022-11-20T00:01:22;-3.70;99.90
13652;DHT22;6899;51.546;6.912;2022-11-20T00:03:50;-3.70;99.90
13652;DHT22;6899;51.546;6.912;2022-11-20T00:06:21;-3.90;99.90
13652;DHT22;6899;51.546;6.912;2022-11-20T00:08:50;-3.90;99.90
13652;DHT22;6899;51.546;6.912;2022-11-20T00:11:19;-3.90;99.90
13652;DHT22;6899;51.546;6.912;2022-11-20T00:13:48;-4.00;99.90
13652;DHT22;6899;51.546;6.912;2022-11-20T00:16:17;-4.00;99.90
13652;DHT22;6899;51.546;6.912;2022-11-20T00:18:44;-4.10;99.90
13652;DHT22;6899;51.546;6.912;2022-11-20T00:21:14;-4.10;99.90
13652;DHT22;6899;51.546;6.912;2022-11-20T00:23:45;-3.90;99.90
13652;DHT22;6899;51.546;6.912;2022-11-20T00:26:16;-4.10;99.90
13652;DHT22;6899;51.546;6.912;2022-11-20T00:28:48;-4.30;99.90
13652;DHT22;6899;51.546;6.912;2022-11-20T00:31:16;-4.30;99.90
13652;DHT22;6899;51.546;6.912;2022-11-20T00:33:44;-4.40;99.90
13652;DHT22;6899;51.546;6.912;2022-11-20T00:36:12;-4.50;99.90
13652;DHT22;6899;51.546;6.912;2022-11-20T00:38:52;-4.40;99.90
13652;DHT22;6899;51.546;6.912;2022-11-20T00:41:26;-4.40;99.90
13652;DHT22;6899;51.546;6.912;2022-11-20T00:43:54;-4.40;99.90
13652;DHT22;6899;51.546;6.912;2022-11-20T00:46:22;-4.40;99.90
13652;DHT22;6899;51.546;6.912;2022-11-20T00:48:50;-4.30;99.90
13652;DHT22;6899;51.546;6.912;2022-11-20T00:51:21;-4.40;99.90
13652;DHT22;6899;51.546;6.912;2022-11-20T00:53:57;-4.40;99.90
13652;DHT22;6899;51.546;6.912;2022-11-20T00:56:25;-4.10;99.90
13652;DHT22;6899;51.546;6.912;2022-11-20T00:58:52;-4.10;99.90
13652;DHT22;6899;51.546;6.912;2022-11-20T01:01:23;-4.50;99.90
13652;DHT22;6899;51.546;6.912;2022-11-20T01:03:52;-4.30;99.90
13652;DHT22;6899;51.546;6.912;2022-11-20T01:06:23;-4.10;99.90
13652;DHT22;6899;51.546;6.912;2022-11-20T01:08:54;-4.10;99.90
13652;DHT22;6899;51.546;6.912;2022-11-20T01:11:23;-4.10;99.90
13652;DHT22;6899;51.546;6.912;2022-11-20T01:13:51;-4.30;99.90
13652;DHT22;6899;51.546;6.912;2022-11-20T01:16:20;-4.10;99.90
13652;DHT22;6899;51.546;6.912;2022-11-20T01:18:49;-4.20;99.90
13652;DHT22;6899;51.546;6.912;2022-11-20T01:21:18;-4.60;99.90
13652;DHT22;6899;51.546;6.912;2022-11-20T01:23:46;-4.60;99.90
13652;DHT22;6899;51.546;6.912;2022-11-20T01:26:16;-4.50;99.90
13652;DHT22;6899;51.546;6.912;2022-11-20T01:28:43;-4.30;99.90
13652;DHT22;6899;51.546;6.912;2022-11-20T01:31:12;-4.50;99.90
13652;DHT22;6899;51.546;6.912;2022-11-20T01:33:46;-4.50;99.90
13652;DHT22;6899;51.546;6.912;2022-11-20T01:36:14;-4.60;99.90
13652;DHT22;6899;51.546;6.912;2022-11-20T01:38:42;-4.50;99.90
13652;DHT22;6899;51.546;6.912;2022-11-20T01:41:09;-4.40;99.90
13652;DHT22;6899;51.546;6.912;2022-11-20T01:43:58;-4.30;99.90
13652;DHT22;6899;51.546;6.912;2022-11-20T01:46:24;-4.60;99.90
13652;DHT22;6899;51.546;6.912;2022-11-20T01:48:53;-4.30;99.90
13652;DHT22;6899;51.546;6.912;2022-11-20T01:51:25;-4.20;99.90
13652;DHT22;6899;51.546;6.912;2022-11-20T01:53:54;-4.50;99.90
13652;DHT22;6899;51.546;6.912;2022-11-20T01:56:24;-4.50;99.90
13652;DHT22;6899;51.546;6.912;2022-11-20T01:58:54;-4.30;99.90
13652;DHT22;6899;51.546;6.912;2022-11-20T02:01:23;-4.30;99.90
13652;DHT22;6899;51.546;6.912;2022-11-20T02:03:50;-4.50;99.90
13652;DHT22;6899;51.546;6.912;2022-11-20T02:06:22;-4.40;99.90
13652;DHT22;6899;51.546;6.912;2022-11-20T02:08:51;-4.20;99.90
13652;DHT22;6899;51.546;6.912;2022-11-20T02:11:23;-4.20;99.90
13652;DHT22;6899;51.546;6.912;2022-11-20T02:13:50;-4.00;99.90
13652;DHT22;6899;51.546;6.912;2022-11-20T02:16:20;-4.00;99.90
13652;DHT22;6899;51.546;6.912;2022-11-20T02:18:56;-3.90;99.90
13652;DHT22;6899;51.546;6.912;2022-11-20T02:21:34;-4.00;99.90
13652;DHT22;6899;51.546;6.912;2022-11-20T02:24:18;-4.10;99.90
13652;DHT22;6899;51.546;6.912;2022-11-20T02:26:49;-4.10;99.90
13652;DHT22;6899;51.546;6.912;2022-11-20T02:29:22;-4.00;99.90
13652;DHT22;6899;51.546;6.912;2022-11-20T02:31:50;-3.90;99.90
13652;DHT22;6899;51.546;6.912;2022-11-20T02:34:18;-3.90;99.90
13652;DHT22;6899;51.546;6.912;2022-11-20T02:36:44;-4.20;99.90
13652;DHT22;6899;51.546;6.912;2022-11-20T02:39:15;-4.30;99.90
13652;DHT22;6899;51.546;6.912;2022-11-20T02:41:43;-4.10;99.90
13652;DHT22;6899;51.546;6.912;2022-11-20T02:44:10;-4.10;99.90
13652;DHT22;6899;51.546;6.912;2022-11-20T02:46:36;-4.10;99.90
13652;DHT22;6899;51.546;6.912;2022-11-20T02:49:04;-4.20;99.90
13652;DHT22;6899;51.546;6.912;2022-11-20T02:51:31;-4.30;99.90
13652;DHT22;6899;51.546;6.912;2022-11-20T02:53:58;-4.30;99.90
13652;DHT22;6899;51.546;6.912;2022-11-20T02:56:30;-4.00;99.90
13652;DHT22;6899;51.546;6.912;2022-11-20T02:58:57;-3.80;99.90
13652;DHT22;6899;51.546;6.912;2022-11-20T03:01:27;-3.50;99.90
13652;DHT22;6899;51.546;6.912;2022-11-20T03:03:53;-3.30;99.90
13652;DHT22;6899;51.546;6.912;2022-11-20T03:06:24;-3.20;99.90
13652;DHT22;6899;51.546;6.912;2022-11-20T03:08:51;-3.10;99.90
13652;DHT22;6899;51.546;6.912;2022-11-20T03:11:18;-3.10;99.90
13652;DHT22;6899;51.546;6.912;2022-11-20T03:13:46;-2.90;99.90
13652;DHT22;6899;51.546;6.912;2022-11-20T03:16:16;-2.90;99.90
13652;DHT22;6899;51.546;6.912;2022-11-20T03:18:46;-2.80;99.90
13652;DHT22;6899;51.546;6.912;2022-11-20T03:21:14;-2.70;99.90
13652;DHT22;6899;51.546;6.912;2022-11-20T03:23:41;-2.70;99.90
13652;DHT22;6899;51.546;6.912;2022-11-20T03:26:10;-2.60;99.90
13652;DHT22;6899;51.546;6.912;2022-11-20T03:28:37;-2.60;99.90
13652;DHT22;6899;51.546;6.912;2022-11-20T03:31:11;-2.50;99.90
13652;DHT22;6899;51.546;6.912;2022-11-20T03:33:38;-2.60;99.90
13652;DHT22;6899;51.546;6.912;2022-11-20T03:36:07;-2.70;99.90
13652;DHT22;6899;51.546;6.912;2022-11-20T03:38:35;-2.80;99.90
13652;DHT22;6899;51.546;6.912;2022-11-20T03:41:03;-2.80;99.90
13652;DHT22;6899;51.546;6.912;2022-11-20T03:43:30;-2.90;99.90
13652;DHT22;6899;51.546;6.912;2022-11-20T03:45:57;-3.00;99.90
13652;DHT22;6899;51.546;6.912;2022-11-20T03:48:26;-3.10;99.90
13652;DHT22;6899;51.546;6.912;2022-11-20T03:50:53;-3.10;99.90
13652;DHT22;6899;51.546;6.912;2022-11-20T03:53:20;-3.20;99.90
13652;DHT22;6899;51.546;6.912;2022-11-20T03:55:51;-3.30;99.90
13652;DHT22;6899;51.546;6.912;2022-11-20T03:58:17;-3.30;99.90
13652;DHT22;6899;51.546;6.912;2022-11-20T04:00:53;-3.30;99.90
13652;DHT22;6899;51.546;6.912;2022-11-20T04:03:20;-3.30;99.90
13652;DHT22;6899;51.546;6.912;2022-11-20T04:05:48;-3.30;99.90
13652;DHT22;6899;51.546;6.912;2022-11-20T04:08:15;-3.10;99.90
13652;DHT22;6899;51.546;6.912;2022-11-20T04:10:42;-3.20;99.90
13652;DHT22;6899;51.546;6.912;2022-11-20T04:13:08;-3.00;99.90
13652;DHT22;6899;51.546;6.912;2022-11-20T04:15:35;-3.00;99.90
13652;DHT22;6899;51.546;6.912;2022-11-20T04:18:02;-2.90;99.90
13652;DHT22;6899;51.546;6.912;2022-11-20T04:20:29;-2.90;99.90
13652;DHT22;6899;51.546;6.912;2022-11-20T04:22:57;-2.80;99.90
13652;DHT22;6899;51.546;6.912;2022-11-20T04:25:24;-2.90;99.90
13652;DHT22;6899;51.546;6.912;2022-11-20T04:27:51;-2.90;99.90
13652;DHT22;6899;51.546;6.912;2022-11-20T04:30:17;-2.80;99.90
13652;DHT22;6899;51.546;6.912;2022-11-20T04:32:44;-2.90;99.90
13652;DHT22;6899;51.546;6.912;2022-11-20T04:35:14;-2.80;99.90
13652;DHT22;6899;51.546;6.912;2022-11-20T04:37:51;-2.70;99.90
13652;DHT22;6899;51.546;6.912;2022-11-20T04:40:19;-2.80;99.90
13652;DHT22;6899;51.546;6.912;2022-11-20T04:42:46;-2.80;99.90
13652;DHT22;6899;51.546;6.912;2022-11-20T04:45:16;-2.90;99.90
13652;DHT22;6899;51.546;6.912;2022-11-20T04:47:43;-3.00;99.90
13652;DHT22;6899;51.546;6.912;2022-11-20T04:50:10;-3.10;99.90
13652;DHT22;6899;51.546;6.912;2022-11-20T04:52:37;-3.30;99.90
13652;DHT22;6899;51.546;6.912;2022-11-20T04:55:07;-3.30;99.90
13652;DHT22;6899;51.546;6.912;2022-11-20T04:57:35;-3.30;99.90
13652;DHT22;6899;51.546;6.912;2022-11-20T05:00:03;-3.70;99.90
13652;DHT22;6899;51.546;6.912;2022-11-20T05:02:31;-3.80;99.90
13652;DHT22;6899;51.546;6.912;2022-11-20T05:04:58;-3.80;99.90
13652;DHT22;6899;51.546;6.912;2022-11-20T05:07:27;-3.80;99.90
13652;DHT22;6899;51.546;6.912;2022-11-20T05:09:54;-3.80;99.90
13652;DHT22;6899;51.546;6.912;2022-11-20T05:12:21;-4.10;99.90
13652;DHT22;6899;51.546;6.912;2022-11-20T05:14:49;-4.00;99.90
13652;DHT22;6899;51.546;6.912;2022-11-20T05:17:16;-3.90;99.90
13652;DHT22;6899;51.546;6.912;2022-11-20T05:19:48;-4.00;99.90
13652;DHT22;6899;51.546;6.912;2022-11-20T05:22:15;-4.00;99.90
13652;DHT22;6899;51.546;6.912;2022-11-20T05:24:42;-3.70;99.90
13652;DHT22;6899;51.546;6.912;2022-11-20T05:27:11;-3.50;99.90
13652;DHT22;6899;51.546;6.912;2022-11-20T05:29:44;-3.40;99.90
13652;DHT22;6899;51.546;6.912;2022-11-20T05:32:18;-3.40;99.90
13652;DHT22;6899;51.546;6.912;2022-11-20T05:34:45;-3.20;99.90
13652;DHT22;6899;51.546;6.912;2022-11-20T05:37:12;-3.20;99.90
13652;DHT22;6899;51.546;6.912;2022-11-20T05:39:39;-3.10;99.90
13652;DHT22;6899;51.546;6.912;2022-11-20T05:42:05;-2.90;99.90
13652;DHT22;6899;51.546;6.912;2022-11-20T05:44:50;-2.90;99.90
13652;DHT22;6899;51.546;6.912;2022-11-20T05:47:18;-2.90;99.90
13652;DHT22;6899;51.546;6.912;2022-11-20T05:49:45;-2.80;99.90
13652;DHT22;6899;51.546;6.912;2022-11-20T05:52:12;-2.80;99.90
13652;DHT22;6899;51.546;6.912;2022-11-20T05:54:38;-2.80;99.90
13652;DHT22;6899;51.546;6.912;2022-11-20T05:57:05;-2.80;99.90
13652;DHT22;6899;51.546;6.912;2022-11-20T05:59:32;-2.70;99.90
13652;DHT22;6899;51.546;6.912;2022-11-20T06:01:59;-2.80;99.90
13652;DHT22;6899;51.546;6.912;2022-11-20T06:04:27;-2.90;99.90
13652;DHT22;6899;51.546;6.912;2022-11-20T06:06:54;-2.90;99.90
13652;DHT22;6899;51.546;6.912;2022-11-20T06:09:21;-2.80;99.90
13652;DHT22;6899;51.546;6.912;2022-11-20T06:11:48;-2.90;99.90
13652;DHT22;6899;51.546;6.912;2022-11-20T06:14:14;-3.10;99.90
13652;DHT22;6899;51.546;6.912;2022-11-20T06:16:41;-3.00;99.90
13652;DHT22;6899;51.546;6.912;2022-11-20T06:19:08;-3.10;99.90
13652;DHT22;6899;51.546;6.912;2022-11-20T06:21:36;-3.20;99.90
13652;DHT22;6899;51.546;6.912;2022-11-20T06:24:03;-3.20;99.90
13652;DHT22;6899;51.546;6.912;2022-11-20T06:26:30;-3.20;99.90
13652;DHT22;6899;51.546;6.912;2022-11-20T06:28:57;-3.10;99.90
13652;DHT22;6899;51.546;6.912;2022-11-20T06:31:25;-3.30;99.90
13652;DHT22;6899;51.546;6.912;2022-11-20T06:33:54;-3.30;99.90
13652;DHT22;6899;51.546;6.912;2022-11-20T06:36:22;-3.40;99.90
13652;DHT22;6899;51.546;6.912;2022-11-20T06:38:53;-3.20;99.90
13652;DHT22;6899;51.546;6.912;2022-11-20T06:41:24;-3.10;99.90
13652;DHT22;6899;51.546;6.912;2022-11-20T06:43:51;-3.10;99.90
13652;DHT22;6899;51.546;6.912;2022-11-20T06:46:19;-3.00;99.90
13652;DHT22;6899;51.546;6.912;2022-11-20T06:48:47;-3.00;99.90
13652;DHT22;6899;51.546;6.912;2022-11-20T06:51:14;-3.20;99.90
13652;DHT22;6899;51.546;6.912;2022-11-20T06:53:41;-3.30;99.90
13652;DHT22;6899;51.546;6.912;2022-11-20T06:56:09;-3.40;99.90
13652;DHT22;6899;51.546;6.912;2022-11-20T06:58:45;-3.40;99.90
13652;DHT22;6899;51.546;6.912;2022-11-20T07:01:14;-3.70;99.90
13652;DHT22;6899;51.546;6.912;2022-11-20T07:03:41;-3.70;99.90
13652;DHT22;6899;51.546;6.912;2022-11-20T07:06:11;-3.70;99.90
13652;DHT22;6899;51.546;6.912;2022-11-20T07:08:38;-3.80;99.90
13652;DHT22;6899;51.546;6.912;2022-11-20T07:11:12;-3.70;99.90
13652;DHT22;6899;51.546;6.912;2022-11-20T07:13:45;-3.60;99.90
13652;DHT22;6899;51.546;6.912;2022-11-20T07:16:11;-3.70;99.90
13652;DHT22;6899;51.546;6.912;2022-11-20T07:18:38;-3.90;99.90
13652;DHT22;6899;51.546;6.912;2022-11-20T07:21:07;-3.80;99.90
13652;DHT22;6899;51.546;6.912;2022-11-20T07:23:35;-3.70;99.90
13652;DHT22;6899;51.546;6.912;2022-11-20T07:26:03;-3.70;99.90
13652;DHT22;6899;51.546;6.912;2022-11-20T07:28:32;-3.70;99.90
13652;DHT22;6899;51.546;6.912;2022-11-20T07:30:59;-3.70;99.90
13652;DHT22;6899;51.546;6.912;2022-11-20T07:33:26;-3.60;99.90
13652;DHT22;6899;51.546;6.912;2022-11-20T07:35:53;-3.50;99.90
13652;DHT22;6899;51.546;6.912;2022-11-20T07:38:20;-3.60;99.90
13652;DHT22;6899;51.546;6.912;2022-11-20T07:40:46;-3.50;99.90
13652;DHT22;6899;51.546;6.912;2022-11-20T07:43:14;-3.50;99.90
13652;DHT22;6899;51.546;6.912;2022-11-20T07:45:42;-3.50;99.90
13652;DHT22;6899;51.546;6.912;2022-11-20T07:48:09;-3.40;99.90
13652;DHT22;6899;51.546;6.912;2022-11-20T07:50:36;-3.40;99.90
13652;DHT22;6899;51.546;6.912;2022-11-20T07:53:03;-3.40;99.90
13652;DHT22;6899;51.546;6.912;2022-11-20T07:55:31;-3.30;99.90
13652;DHT22;6899;51.546;6.912;2022-11-20T07:57:58;-3.30;99.90
13652;DHT22;6899;51.546;6.912;2022-11-20T08:00:26;-3.40;99.90
13652;DHT22;6899;51.546;6.912;2022-11-20T08:02:54;-3.30;99.90
13652;DHT22;6899;51.546;6.912;2022-11-20T08:05:21;-3.20;99.90
13652;DHT22;6899;51.546;6.912;2022-11-20T08:07:48;-3.20;99.90
13652;DHT22;6899;51.546;6.912;2022-11-20T08:10:16;-3.10;99.90
13652;DHT22;6899;51.546;6.912;2022-11-20T08:12:44;-3.00;99.90
13652;DHT22;6899;51.546;6.912;2022-11-20T08:15:28;-2.90;99.90
13652;DHT22;6899;51.546;6.912;2022-11-20T08:18:01;-2.70;99.90
13652;DHT22;6899;51.546;6.912;2022-11-20T08:20:28;-2.60;99.90
13652;DHT22;6899;51.546;6.912;2022-11-20T08:22:58;-2.40;99.90
13652;DHT22;6899;51.546;6.912;2022-11-20T08:25:26;-2.30;99.90
13652;DHT22;6899;51.546;6.912;2022-11-20T08:27:53;-2.20;99.90
13652;DHT22;6899;51.546;6.912;2022-11-20T08:30:20;-2.20;99.90
13652;DHT22;6899;51.546;6.912;2022-11-20T08:32:47;-2.00;99.90
13652;DHT22;6899;51.546;6.912;2022-11-20T08:35:21;-1.90;99.90
13652;DHT22;6899;51.546;6.912;2022-11-20T08:37:48;-1.90;99.90
13652;DHT22;6899;51.546;6.912;2022-11-20T08:40:15;-1.70;99.90
13652;DHT22;6899;51.546;6.912;2022-11-20T08:42:46;-1.60;99.90
13652;DHT22;6899;51.546;6.912;2022-11-20T08:45:14;-1.50;99.90
13652;DHT22;6899;51.546;6.912;2022-11-20T08:47:43;-1.40;99.90
13652;DHT22;6899;51.546;6.912;2022-11-20T08:50:11;-1.30;99.90
13652;DHT22;6899;51.546;6.912;2022-11-20T08:52:40;-1.30;99.90
13652;DHT22;6899;51.546;6.912;2022-11-20T08:55:08;-1.40;99.90
13652;DHT22;6899;51.546;6.912;2022-11-20T08:57:35;-1.50;99.90
13652;DHT22;6899;51.546;6.912;2022-11-20T09:00:05;-1.60;99.90
13652;DHT22;6899;51.546;6.912;2022-11-20T09:02:32;-1.50;99.90
13652;DHT22;6899;51.546;6.912;2022-11-20T09:04:59;-1.40;99.90
13652;DHT22;6899;51.546;6.912;2022-11-20T09:07:28;-1.20;99.90
13652;DHT22;6899;51.546;6.912;2022-11-20T09:09:58;-0.90;99.90
13652;DHT22;6899;51.546;6.912;2022-11-20T09:12:27;-0.60;99.90
13652;DHT22;6899;51.546;6.912;2022-11-20T09:14:54;-0.30;99.90
13652;DHT22;6899;51.546;6.912;2022-11-20T09:17:21;-0.20;99.90
13652;DHT22;6899;51.546;6.912;2022-11-20T09:19:48;-0.10;99.90
13652;DHT22;6899;51.546;6.912;2022-11-20T09:22:20;-0.10;99.90
13652;DHT22;6899;51.546;6.912;2022-11-20T09:24:47;-0.20;99.90
13652;DHT22;6899;51.546;6.912;2022-11-20T09:27:16;-0.20;99.90
13652;DHT22;6899;51.546;6.912;2022-11-20T09:29:47;-0.20;99.90
13652;DHT22;6899;51.546;6.912;2022-11-20T09:32:14;-0.30;99.90
13652;DHT22;6899;51.546;6.912;2022-11-20T09:34:41;-0.20;99.90
13652;DHT22;6899;51.546;6.912;2022-11-20T09:37:08;-0.10;99.90
13652;DHT22;6899;51.546;6.912;2022-11-20T09:39:35;0.10;99.90
13652;DHT22;6899;51.546;6.912;2022-11-20T09:42:22;0.30;99.90
13652;DHT22;6899;51.546;6.912;2022-11-20T09:45:02;0.40;99.90
13652;DHT22;6899;51.546;6.912;2022-11-20T09:47:41;0.50;99.90
13652;DHT22;6899;51.546;6.912;2022-11-20T09:50:23;0.50;99.90
13652;DHT22;6899;51.546;6.912;2022-11-20T09:53:03;0.50;99.90
13652;DHT22;6899;51.546;6.912;2022-11-20T09:55:31;0.30;99.90
13652;DHT22;6899;51.546;6.912;2022-11-20T09:58:00;0.40;99.90
13652;DHT22;6899;51.546;6.912;2022-11-20T10:00:28;0.40;99.90
13652;DHT22;6899;51.546;6.912;2022-11-20T10:02:59;0.60;99.90
13652;DHT22;6899;51.546;6.912;2022-11-20T10:05:30;0.80;99.90
13652;DHT22;6899;51.546;6.912;2022-11-20T10:08:12;1.10;99.90
13652;DHT22;6899;51.546;6.912;2022-11-20T10:10:44;1.30;99.90
13652;DHT22;6899;51.546;6.912;2022-11-20T10:13:27;1.60;99.90
13652;DHT22;6899;51.546;6.912;2022-11-20T10:16:03;1.90;99.90
13652;DHT22;6899;51.546;6.912;2022-11-20T10:18:43;2.00;99.90
13652;DHT22;6899;51.546;6.912;2022-11-20T10:21:18;2.30;99.90
13652;DHT22;6899;51.546;6.912;2022-11-20T10:26:48;2.70;99.90
13652;DHT22;6899;51.546;6.912;2022-11-20T10:29:27;3.00;99.90
13652;DHT22;6899;51.546;6.912;2022-11-20T10:32:00;3.30;99.90
13652;DHT22;6899;51.546;6.912;2022-11-20T10:34:31;3.30;99.90
13652;DHT22;6899;51.546;6.912;2022-11-20T10:37:02;3.30;99.90
13652;DHT22;6899;51.546;6.912;2022-11-20T10:39:38;3.30;99.90
13652;DHT22;6899;51.546;6.912;2022-11-20T10:42:09;3.30;99.90
13652;DHT22;6899;51.546;6.912;2022-11-20T10:44:49;3.50;99.90
13652;DHT22;6899;51.546;6.912;2022-11-20T10:47:31;3.80;99.90
13652;DHT22;6899;51.546;6.912;2022-11-20T10:50:02;4.10;99.90
13652;DHT22;6899;51.546;6.912;2022-11-20T10:52:35;4.50;99.90
13652;DHT22;6899;51.546;6.912;2022-11-20T10:55:17;4.50;99.90
13652;DHT22;6899;51.546;6.912;2022-11-20T10:57:53;4.40;99.90
13652;DHT22;6899;51.546;6.912;2022-11-20T11:00:30;4.30;99.90
13652;DHT22;6899;51.546;6.912;2022-11-20T11:02:57;4.50;99.90
13652;DHT22;6899;51.546;6.912;2022-11-20T11:05:34;4.70;99.90
13652;DHT22;6899;51.546;6.912;2022-11-20T11:08:03;5.00;99.90
13652;DHT22;6899;51.546;6.912;2022-11-20T11:10:37;5.20;99.90
13652;DHT22;6899;51.546;6.912;2022-11-20T11:13:18;5.20;99.90
13652;DHT22;6899;51.546;6.912;2022-11-20T11:15:47;5.30;99.90
13652;DHT22;6899;51.546;6.912;2022-11-20T11:18:23;5.50;99.90
13652;DHT22;6899;51.546;6.912;2022-11-20T11:20:51;5.70;99.90
13652;DHT22;6899;51.546;6.912;2022-11-20T11:23:29;5.70;99.90
13652;DHT22;6899;51.546;6.912;2022-11-20T11:25:58;6.20;99.90
13652;DHT22;6899;51.546;6.912;2022-11-20T11:28:28;5.50;99.90
13652;DHT22;6899;51.546;6.912;2022-11-20T11:30:56;5.90;99.90
13652;DHT22;6899;51.546;6.912;2022-11-20T11:33:24;6.40;99.90
13652;DHT22;6899;51.546;6.912;2022-11-20T11:35:53;7.00;99.90
13652;DHT22;6899;51.546;6.912;2022-11-20T11:38:28;6.70;99.90
13652;DHT22;6899;51.546;6.912;2022-11-20T11:40:56;6.50;99.90
13652;DHT22;6899;51.546;6.912;2022-11-20T11:43:25;6.30;99.90
13652;DHT22;6899;51.546;6.912;2022-11-20T11:46:36;6.20;99.90
13652;DHT22;6899;51.546;6.912;2022-11-20T11:49:16;6.40;99.90
13652;DHT22;6899;51.546;6.912;2022-11-20T11:51:54;6.40;99.90
13652;DHT22;6899;51.546;6.912;2022-11-20T11:54:26;6.60;99.90
13652;DHT22;6899;51.546;6.912;2022-11-20T11:56:55;6.40;99.90
13652;DHT22;6899;51.546;6.912;2022-11-20T11:59:29;6.10;99.90
13652;DHT22;6899;51.546;6.912;2022-11-20T12:02:15;6.10;99.90
13652;DHT22;6899;51.546;6.912;2022-11-20T12:04:52;6.00;99.90
13652;DHT22;6899;51.546;6.912;2022-11-20T12:07:27;6.00;99.90
13652;DHT22;6899;51.546;6.912;2022-11-20T12:09:57;6.10;99.90
13652;DHT22;6899;51.546;6.912;2022-11-20T12:12:29;5.80;99.90
13652;DHT22;6899;51.546;6.912;2022-11-20T12:14:57;6.30;99.90
13652;DHT22;6899;51.546;6.912;2022-11-20T12:17:26;6.30;99.90
13652;DHT22;6899;51.546;6.912;2022-11-20T12:19:52;6.20;99.90
13652;DHT22;6899;51.546;6.912;2022-11-20T12:22:30;6.00;99.90
13652;DHT22;6899;51.546;6.912;2022-11-20T12:25:03;5.60;99.90
13652;DHT22;6899;51.546;6.912;2022-11-20T12:28:10;5.50;99.90
13652;DHT22;6899;51.546;6.912;2022-11-20T12:30:46;5.10;99.90
13652;DHT22;6899;51.546;6.912;2022-11-20T12:34:01;5.00;99.90
13652;DHT22;6899;51.546;6.912;2022-11-20T12:36:40;4.90;99.90
13652;DHT22;6899;51.546;6.912;2022-11-20T12:39:33;4.80;99.90
13652;DHT22;6899;51.546;6.912;2022-11-20T12:45:21;4.70;99.90
13652;DHT22;6899;51.546;6.912;2022-11-20T12:48:12;4.80;99.90
13652;DHT22;6899;51.546;6.912;2022-11-20T12:50:52;4.70;99.90
13652;DHT22;6899;51.546;6.912;2022-11-20T12:53:30;4.70;99.90
13652;DHT22;6899;51.546;6.912;2022-11-20T12:56:05;4.70;99.90
13652;DHT22;6899;51.546;6.912;2022-11-20T12:58:49;4.70;99.90
13652;DHT22;6899;51.546;6.912;2022-11-20T13:01:27;4.70;99.90
13652;DHT22;6899;51.546;6.912;2022-11-20T13:04:12;4.80;99.90
13652;DHT22;6899;51.546;6.912;2022-11-20T13:06:49;4.80;99.90
13652;DHT22;6899;51.546;6.912;2022-11-20T13:09:35;4.80;99.90
13652;DHT22;6899;51.546;6.912;2022-11-20T13:12:09;4.90;99.90
13652;DHT22;6899;51.546;6.912;2022-11-20T13:14:40;5.00;99.90
13652;DHT22;6899;51.546;6.912;2022-11-20T13:17:17;5.10;99.90
13652;DHT22;6899;51.546;6.912;2022-11-20T13:19:51;5.00;99.90
13652;DHT22;6899;51.546;6.912;2022-11-20T13:22:27;5.10;99.90
13652;DHT22;6899;51.546;6.912;2022-11-20T13:24:54;5.00;99.90
13652;DHT22;6899;51.546;6.912;2022-11-20T13:27:25;4.90;99.90
13652;DHT22;6899;51.546;6.912;2022-11-20T13:30:03;5.10;99.90
13652;DHT22;6899;51.546;6.912;2022-11-20T13:32:48;4.90;99.90
13652;DHT22;6899;51.546;6.912;2022-11-20T13:35:25;4.80;99.90
13652;DHT22;6899;51.546;6.912;2022-11-20T13:38:06;4.70;99.90
13652;DHT22;6899;51.546;6.912;2022-11-20T13:40:36;4.60;99.90
13652;DHT22;6899;51.546;6.912;2022-11-20T13:43:22;4.60;99.90
13652;DHT22;6899;51.546;6.912;2022-11-20T13:45:59;4.60;99.90
13652;DHT22;6899;51.546;6.912;2022-11-20T13:48:30;4.60;99.90
13652;DHT22;6899;51.546;6.912;2022-11-20T13:51:23;4.50;99.90
13652;DHT22;6899;51.546;6.912;2022-11-20T13:54:18;4.50;99.90
13652;DHT22;6899;51.546;6.912;2022-11-20T13:57:00;4.40;99.90
13652;DHT22;6899;51.546;6.912;2022-11-20T13:59:49;4.30;99.90
13652;DHT22;6899;51.546;6.912;2022-11-20T14:02:20;4.20;99.90
13652;DHT22;6899;51.546;6.912;2022-11-20T14:04:58;4.20;99.90
13652;DHT22;6899;51.546;6.912;2022-11-20T14:07:39;4.10;99.90
13652;DHT22;6899;51.546;6.912;2022-11-20T14:10:26;4.00;99.90
13652;DHT22;6899;51.546;6.912;2022-11-20T14:13:18;4.10;99.90
13652;DHT22;6899;51.546;6.912;2022-11-20T14:15:46;4.00;99.90
13652;DHT22;6899;51.546;6.912;2022-11-20T14:18:18;3.90;99.90
13652;DHT22;6899;51.546;6.912;2022-11-20T14:20:53;3.90;99.90
13652;DHT22;6899;51.546;6.912;2022-11-20T14:23:28;3.90;99.90
13652;DHT22;6899;51.546;6.912;2022-11-20T14:26:04;3.90;99.90
13652;DHT22;6899;51.546;6.912;2022-11-20T14:28:31;3.80;99.90
13652;DHT22;6899;51.546;6.912;2022-11-20T14:30:58;3.80;99.90
13652;DHT22;6899;51.546;6.912;2022-11-20T14:33:26;3.80;99.90
13652;DHT22;6899;51.546;6.912;2022-11-20T14:35:56;3.70;99.90
13652;DHT22;6899;51.546;6.912;2022-11-20T14:38:26;3.70;99.90
13652;DHT22;6899;51.546;6.912;2022-11-20T14:40:53;3.60;99.90
13652;DHT22;6899;51.546;6.912;2022-11-20T14:43:24;3.60;99.90
13652;DHT22;6899;51.546;6.912;2022-11-20T14:45:58;3.60;99.90
13652;DHT22;6899;51.546;6.912;2022-11-20T14:48:30;3.60;99.90
13652;DHT22;6899;51.546;6.912;2022-11-20T14:50:58;3.60;99.90
13652;DHT22;6899;51.546;6.912;2022-11-20T14:53:25;3.50;99.90
13652;DHT22;6899;51.546;6.912;2022-11-20T14:55:57;3.50;99.90
13652;DHT22;6899;51.546;6.912;2022-11-20T14:58:30;3.50;99.90
13652;DHT22;6899;51.546;6.912;2022-11-20T15:01:00;3.50;99.90
13652;DHT22;6899;51.546;6.912;2022-11-20T15:03:33;3.50;99.90
13652;DHT22;6899;51.546;6.912;2022-11-20T15:06:00;3.50;99.90
13652;DHT22;6899;51.546;6.912;2022-11-20T15:08:28;3.30;99.90
13652;DHT22;6899;51.546;6.912;2022-11-20T15:10:55;3.40;99.90
13652;DHT22;6899;51.546;6.912;2022-11-20T15:13:34;3.30;99.90
13652;DHT22;6899;51.546;6.912;2022-11-20T15:16:15;3.30;99.90
13652;DHT22;6899;51.546;6.912;2022-11-20T15:18:43;3.30;99.90
13652;DHT22;6899;51.546;6.912;2022-11-20T15:21:12;3.40;99.90
13652;DHT22;6899;51.546;6.912;2022-11-20T15:23:39;3.30;99.90
13652;DHT22;6899;51.546;6.912;2022-11-20T15:26:07;3.40;99.90
13652;DHT22;6899;51.546;6.912;2022-11-20T15:28:40;3.20;99.90
13652;DHT22;6899;51.546;6.912;2022-11-20T15:31:11;3.30;99.90
13652;DHT22;6899;51.546;6.912;2022-11-20T15:33:38;3.20;99.90
13652;DHT22;6899;51.546;6.912;2022-11-20T15:36:05;3.20;99.90
13652;DHT22;6899;51.546;6.912;2022-11-20T15:38:32;3.20;99.90
13652;DHT22;6899;51.546;6.912;2022-11-20T15:40:59;3.20;99.90
13652;DHT22;6899;51.546;6.912;2022-11-20T15:43:26;3.20;99.90
13652;DHT22;6899;51.546;6.912;2022-11-20T15:45:56;3.10;99.90
13652;DHT22;6899;51.546;6.912;2022-11-20T15:48:28;3.10;99.90
13652;DHT22;6899;51.546;6.912;2022-11-20T15:50:58;3.10;99.90
13652;DHT22;6899;51.546;6.912;2022-11-20T15:53:26;3.00;99.90
13652;DHT22;6899;51.546;6.912;2022-11-20T15:55:53;3.00;99.90
13652;DHT22;6899;51.546;6.912;2022-11-20T15:58:22;3.00;99.90
13652;DHT22;6899;51.546;6.912;2022-11-20T16:00:49;3.00;99.90
13652;DHT22;6899;51.546;6.912;2022-11-20T16:03:19;3.00;99.90
13652;DHT22;6899;51.546;6.912;2022-11-20T16:05:46;3.00;99.90
13652;DHT22;6899;51.546;6.912;2022-11-20T16:08:13;2.90;99.90
13652;DHT22;6899;51.546;6.912;2022-11-20T16:10:40;2.90;99.90
13652;DHT22;6899;51.546;6.912;2022-11-20T16:13:12;2.90;99.90
13652;DHT22;6899;51.546;6.912;2022-11-20T16:15:58;2.90;99.90
13652;DHT22;6899;51.546;6.912;2022-11-20T16:18:26;2.90;99.90
13652;DHT22;6899;51.546;6.912;2022-11-20T16:20:54;2.90;99.90
13652;DHT22;6899;51.546;6.912;2022-11-20T16:23:21;2.90;99.90